Flight Track Log - Related Links

Times and Time Zones

All times are in EDT time to prevent confusion due to time zone crossing. See the ASH3751 flight status page for this flight to view local times or setup timezone preferences in your user account.

Time Position Orientation Groundspeed Altitude Reporting Facility
EDT Latitude Longitude Course Direction KTS MPH feet Rate Location/Type
Fri 11:11:51 PM 41.9667 -87.8667 83° East 169 194 1,900  Level Chicago TRACON
Fri 11:12:39 PM 41.9833 -87.8000 71° East 242 278 3,200 1,828 Climbing Chicago TRACON
Fri 11:13:59 PM 42.0203 -87.6831 67° East 272 313 5,800 2,383 Climbing Chicago Center
Fri 11:14:00 PM 42.1301 -87.4519 63° Northeast  Level FlightAware Approximate
Fri 11:15:00 PM 42.1842 -87.2975 66° East  Level FlightAware Approximate
Fri 11:15:00 PM 42.0436 -87.5747 74° East 297 342 8,800  Level Chicago Center
Fri 11:16:00 PM 42.2361 -87.1416 66° East  Level FlightAware Approximate
Fri 11:16:01 PM 42.0806 -87.4761 63° Northeast 303 349 11,300  Level Chicago Center
Fri 11:17:00 PM 42.2510 -86.9878 83° East  Level Estimated
Fri 11:17:03 PM 42.1281 -87.3772 57° Northeast 311 358 13,000  Level Chicago Center
Fri 11:18:04 PM 42.1822 -87.2647 57° Northeast 355 409 14,800 2,164 Climbing Chicago Center
Fri 11:19:05 PM 42.2475 -87.1267 57° Northeast 365 420 17,400 2,164 Climbing Chicago Center
Fri 11:20:06 PM 42.2806 -86.9947 71° East 382 440 19,200 1,820 Climbing Chicago Center
Fri 11:21:07 PM 42.2872 -86.8522 86° East 386 444 21,100 1,623 Climbing Chicago Center
Fri 11:22:08 PM 42.2939 -86.7069 86° East 390 449 22,500 1,328 Climbing Chicago Center
Fri 11:23:09 PM 42.2986 -86.5717 87° East 402 463 23,800 1,377 Climbing Chicago Center
Fri 11:24:10 PM 42.3047 -86.3947 87° East 411 473 25,300 1,279 Climbing Chicago Center
Fri 11:25:11 PM 42.3103 -86.2375 87° East 420 483 26,400 1,082 Climbing Chicago Center
Fri 11:26:12 PM 42.3156 -86.0778 87° East 428 493 27,500 1,024 Climbing Chicago Center
Fri 11:27:14 PM 42.3131 -85.9147 91° East 436 502 28,500 976 Climbing Chicago Center
Fri 11:28:15 PM 42.3114 -85.7492 91° East 443 510 29,500 984 Climbing Chicago Center
Fri 11:29:16 PM 42.3094 -85.5811 91° East 448 516 30,500 738 Climbing Chicago Center
Fri 11:30:17 PM 42.3061 -85.3756 91° East 458 527 31,000 246 Climbing Chicago Center
Fri 11:31:18 PM 42.3039 -85.1967 91° East 475 547 31,000  Level Chicago Center
Fri 11:32:19 PM 42.3006 -85.0167 91° East 480 552 31,000  Level Chicago Center
Fri 11:33:20 PM 42.2964 -84.8381 92° East 479 551 31,000  Level Chicago Center
Fri 11:34:21 PM 42.2925 -84.6583 92° East 480 552 31,000  Level Chicago Center
Fri 11:35:22 PM 42.2886 -84.4786 92° East 480 552 31,000  Level Chicago Center
Fri 11:35:58 PM 42.3003 -84.3594 82° East 478 550 31,000  Level Cleveland Center
Fri 11:36:58 PM 42.3267 -84.1811 79° East 478 550 31,000  Level Cleveland Center
Fri 11:37:58 PM 42.3508 -84.0056 79° East 483 556 31,000  Level Cleveland Center
Fri 11:38:58 PM 42.3769 -83.8269 79° East 483 556 31,000  Level Cleveland Center
Fri 11:39:58 PM 42.4025 -83.6511 79° East 483 556 31,000  Level Cleveland Center
Fri 11:40:58 PM 42.4117 -83.4631 86° East 491 565 31,000  Level Cleveland Center
Fri 11:41:58 PM 42.4181 -83.2806 87° East 491 565 31,000  Level Cleveland Center
Fri 11:42:58 PM 42.4242 -83.1119 87° East 491 565 31,000  Level Cleveland Center
Fri 11:43:58 PM 42.4300 -82.9294 87° East 491 565 31,000  Level Cleveland Center
Fri 11:44:58 PM 42.4356 -82.7467 88° East 491 565 31,000  Level Cleveland Center
Fri 11:45:58 PM 42.4411 -82.5639 88° East 491 565 31,000  Level Cleveland Center
Fri 11:46:58 PM 42.4461 -82.3811 88° East 491 565 31,000  Level Cleveland Center
Fri 11:47:58 PM 42.4508 -82.2011 88° East 486 559 31,000  Level Cleveland Center
Fri 11:48:58 PM 42.4553 -82.0381 88° East 480 552 31,000  Level Cleveland Center
Fri 11:49:58 PM 42.4578 -81.8186 89° East 480 552 31,000  Level Cleveland Center
Fri 11:50:58 PM 42.4658 -81.6414 86° East 472 543 31,000  Level Cleveland Center
Fri 11:51:58 PM 42.4694 -81.4642 88° East 472 543 31,000  Level Cleveland Center
Fri 11:52:58 PM 42.4728 -81.2814 89° East 487 560 31,000  Level Cleveland Center
Fri 11:53:58 PM 42.4758 -81.0983 89° East 476 548 31,000  Level Cleveland Center
Fri 11:54:58 PM 42.4783 -80.9181 89° East 476 548 31,000  Level Cleveland Center
Fri 11:55:58 PM 42.4808 -80.7353 89° East 482 555 31,000  Level Cleveland Center
Fri 11:56:58 PM 42.4831 -80.5719 89° East 482 555 31,000  Level Cleveland Center
Fri 11:57:58 PM 42.4872 -80.3833 88° East 488 562 31,000  Level Cleveland Center
Fri 11:58:58 PM 42.4867 -80.1975 90° East 493 567 31,000  Level Cleveland Center
Fri 11:59:58 PM 42.4900 -80.0172 89° East 493 567 31,000  Level Cleveland Center
Sat 12:00:58 AM 42.4911 -79.8172 90° East 486 559 31,000  Level Cleveland Center
Sat 12:01:58 AM 42.4917 -79.6314 90° East 486 559 31,000  Level Cleveland Center
Sat 12:02:58 AM 42.4900 -79.4486 91° East 486 559 31,000  Level Cleveland Center
Sat 12:03:58 AM 42.4944 -79.2653 88° East 486 559 31,000  Level Cleveland Center
Sat 12:04:58 AM 42.5047 -79.0819 86° East 486 559 31,000  Level Cleveland Center
Sat 12:05:58 AM 42.5189 -78.9014 84° East 486 559 31,000  Level Cleveland Center
Sat 12:06:58 AM 42.5306 -78.7181 85° East 481 554 31,000  Level Cleveland Center
Sat 12:07:58 AM 42.5419 -78.5289 85° East 486 559 31,000  Level Cleveland Center
Sat 12:08:58 AM 42.5531 -78.3453 85° East 486 559 31,000  Level Cleveland Center
Sat 12:09:58 AM 42.5661 -78.1586 85° East 486 559 31,000  Level Cleveland Center
Sat 12:10:58 AM 42.5767 -77.9750 85° East 491 565 31,000  Level Cleveland Center
Sat 12:11:58 AM 42.5828 -77.7886 87° East 491 565 31,000 -450 Level Cleveland Center
Sat 12:12:58 AM 42.5989 -77.6072 83° East 491 565 30,100 -682 Descending Cleveland Center
Sat 12:14:54 AM 42.6178 -77.2431 86° East 505 581 29,000 -373 Descending Boston Center
Sat 12:15:55 AM 42.6278 -77.0519 86° East 505 581 29,000  Level Boston Center
Sat 12:16:54 AM 42.6375 -76.8633 86° East 499 574 29,000  Level Boston Center
Sat 12:17:54 AM 42.6467 -76.6775 86° East 499 574 29,000 -50 Level Boston Center
Sat 12:18:54 AM 42.6556 -76.4889 86° East 494 568 28,900 -1,200 Descending Boston Center
Sat 12:19:54 AM 42.6639 -76.3086 86° East 488 562 26,600 -1,996 Descending Boston Center
Sat 12:21:00 AM 42.6667 -76.1337 90° East  Level FlightAware Approximate
Sat 12:27:49 AM 42.7131 -75.0089 90° East 393 452 11,100  Level Boston Center
Sat 12:28:00 AM 42.7087 -75.0151 85° East  Level FlightAware Approximate
Sat 12:28:56 AM 42.7167 -74.8506 88° East 363 418 11,100  Level Boston Center
Sat 12:29:00 AM 42.7167 -74.8551 90° East  Level FlightAware Approximate
Sat 12:29:56 AM 42.7236 -74.7125 86° East 364 419 11,100  Level Boston Center
Sat 12:30:00 AM 42.7167 -74.6945 90° East  Level FlightAware Approximate
Sat 12:31:00 AM 42.7174 -74.5414 83° East  Level FlightAware Approximate
Sat 12:31:00 AM 42.7180 -74.5341 83° East  Level FlightAware Approximate
Sat 12:32:00 AM 42.7313 -74.3746 83° East  Level FlightAware Approximate
Sat 12:33:00 AM 42.7333 -74.2142 90° East  Level FlightAware Approximate
Sat 12:38:00 AM 42.7333 -73.8000 90° East  Level FlightAware Approximate
Sat 12:39:00 AM 42.7491 -73.8020 90° East  Level Estimated
Sat 12:40:00 AM 42.7491 -73.8020 90° East  Level Estimated
Sat 12:41:00 AM 42.7491 -73.8020 90° East  Level Estimated
Sat 12:42:00 AM 42.7491 -73.8020 90° East  Level Estimated
Sat 12:43:00 AM 42.7491 -73.8020 90° East  Level Estimated
Sat 12:44:00 AM 42.7491 -73.8020 90° East  Level Estimated
Sat 12:45:00 AM 42.7491 -73.8020 90° East  Level Estimated
Sat 12:46:00 AM 42.7491 -73.8020 90° East  Level Estimated
Sat 12:47:00 AM 42.7491 -73.8020 90° East  Level Estimated
Sat 12:48:00 AM 42.7491 -73.8020 90° East  Level Estimated
Sat 12:49:00 AM 42.7491 -73.8020 90° East  Level Estimated
Sat 12:50:00 AM 42.7491 -73.8020 90° East  Level Estimated
Sat 12:51:00 AM 42.7491 -73.8020 90° East  Level Estimated
Sat 12:52:00 AM 42.7491 -73.8020 90° East  Level Estimated
Sat 12:53:00 AM 42.7491 -73.8020 90° East  Level Estimated
Sat 12:54:00 AM 42.7491 -73.8020 90° East  Level Estimated
Sat 12:55:00 AM 42.7491 -73.8020 90° East  Level Estimated
Sat 12:56:00 AM 42.7491 -73.8020 90° East  Level Estimated
Sat 12:57:00 AM 42.7491 -73.8020 90° East  Level Estimated

Login

Don't have an account? Register now (free) for customized features, flight alerts, and more!